createdAt,value
2022-09-04T00:02:25.925Z,101123.56
2022-09-04T00:05:02.731Z,101120.78
2022-09-04T00:07:39.732Z,101123.09
2022-09-04T00:10:17.775Z,101129.75
2022-09-04T00:12:53.012Z,101131.25
2022-09-04T00:15:27.130Z,101129.28
2022-09-04T00:18:01.697Z,101133.53
2022-09-04T00:20:44.011Z,101135.06
2022-09-04T00:23:19.826Z,101130.31
2022-09-04T00:25:58.889Z,101139.69
2022-09-04T00:28:36.469Z,101125.44
2022-09-04T00:31:16.514Z,101137.59
2022-09-04T00:33:53.166Z,101141.09
2022-09-04T00:36:24.581Z,101150.53
2022-09-04T00:38:57.263Z,101148.50
2022-09-04T00:41:31.274Z,101146.88
2022-09-04T00:44:36.812Z,101156.59
2022-09-04T00:47:39.379Z,101151.84
2022-09-04T00:50:27.469Z,101158.09
2022-09-04T00:53:40.774Z,101162.03
2022-09-04T00:56:35.556Z,101160.50
2022-09-04T00:59:17.249Z,101153.00
2022-09-04T01:01:48.018Z,101155.78
2022-09-04T01:04:43.421Z,101152.56
2022-09-04T01:07:31.491Z,101152.56
2022-09-04T01:10:20.986Z,101156.50
2022-09-04T01:12:58.934Z,101155.72
2022-09-04T01:15:36.561Z,101164.38
2022-09-04T01:18:11.834Z,101155.69
2022-09-04T01:21:07.039Z,101161.94
2022-09-04T01:24:19.719Z,101168.97
2022-09-04T01:27:00.190Z,101167.72
2022-09-04T01:29:40.160Z,101169.28
2022-09-04T01:32:17.232Z,101173.94
2022-09-04T01:34:55.762Z,101178.63
2022-09-04T01:37:42.994Z,101174.59
2022-09-04T01:40:35.707Z,101181.19
2022-09-04T01:43:12.865Z,101181.97
2022-09-04T01:46:26.150Z,101186.56
2022-09-04T01:49:09.823Z,101191.25
2022-09-04T01:52:01.702Z,101193.53
2022-09-04T01:54:52.120Z,101191.06
2022-09-04T01:57:39.645Z,101189.41
2022-09-04T02:00:23.737Z,101194.88
2022-09-04T02:03:30.455Z,101191.69
2022-09-04T02:06:42.821Z,101194.34
2022-09-04T02:09:32.961Z,101197.03
2022-09-04T02:12:10.411Z,101186.00
2022-09-04T02:14:48.853Z,101202.47
2022-09-04T02:17:33.021Z,101215.38
2022-09-04T02:20:23.182Z,101214.53
2022-09-04T02:23:00.704Z,101207.13
2022-09-04T02:25:33.021Z,101215.75
2022-09-04T02:28:17.475Z,101216.56
2022-09-04T02:30:58.115Z,101216.56
2022-09-04T02:33:35.620Z,101217.72
2022-09-04T02:36:11.542Z,101223.22
2022-09-04T02:38:47.940Z,101214.97
2022-09-04T02:41:26.926Z,101218.88
2022-09-04T02:44:09.013Z,101219.69
2022-09-04T02:46:51.007Z,101220.84
2022-09-04T02:49:32.358Z,101221.19
2022-09-04T02:52:12.731Z,101226.69
2022-09-04T02:54:57.963Z,101225.13
2022-09-04T02:57:40.985Z,101222.72
2022-09-04T03:00:15.558Z,101221.16
2022-09-04T03:02:54.449Z,101231.66
2022-09-04T03:05:28.508Z,101228.06
2022-09-04T03:08:03.805Z,101232.69
2022-09-04T03:10:36.788Z,101228.72
2022-09-04T03:13:12.923Z,101239.66
2022-09-04T03:15:45.793Z,101234.09
2022-09-04T03:18:22.463Z,101230.09
2022-09-04T03:20:56.593Z,101240.25
2022-09-04T03:23:35.086Z,101235.09
2022-09-04T03:26:24.707Z,101243.91
2022-09-04T03:29:10.342Z,101236.81
2022-09-04T03:31:47.628Z,101242.31
2022-09-04T03:34:39.514Z,101246.16
2022-09-04T03:37:22.724Z,101244.56
2022-09-04T03:40:05.423Z,101245.28
2022-09-04T03:42:45.390Z,101253.47
2022-09-04T03:45:24.234Z,101256.16
2022-09-04T03:48:12.616Z,101262.38
2022-09-04T03:50:58.463Z,101253.69
2022-09-04T03:53:47.806Z,101256.00
2022-09-04T03:57:04.785Z,101250.78
2022-09-04T03:59:59.653Z,101261.00
2022-09-04T04:02:44.106Z,101259.03
2022-09-04T04:05:27.368Z,101263.75
2022-09-04T04:08:14.858Z,101259.81
2022-09-04T04:11:00.774Z,101264.53
2022-09-04T04:14:13.937Z,101272.78
2022-09-04T04:20:18.137Z,101275.53
2022-09-04T04:26:23.483Z,101277.13
2022-09-04T04:30:02.348Z,101282.19
2022-09-04T04:32:55.161Z,101277.50
2022-09-04T04:42:20.790Z,101288.78
2022-09-04T04:52:51.421Z,101297.13
2022-09-04T06:16:53.463Z,101408.41
2022-09-04T06:27:09.835Z,101401.44
2022-09-04T06:29:51.292Z,101405.72
2022-09-04T06:32:49.267Z,101398.41
2022-09-04T06:35:33.643Z,101402.25
2022-09-04T06:38:16.134Z,101409.38
2022-09-04T06:40:59.179Z,101404.97
2022-09-04T06:43:38.029Z,101409.34
2022-09-04T06:46:20.224Z,101416.09
2022-09-04T06:49:02.785Z,101408.44
2022-09-04T06:51:54.614Z,101409.44
2022-09-04T06:54:36.473Z,101412.97
2022-09-04T06:57:31.726Z,101405.72
2022-09-04T07:00:10.213Z,101405.81
2022-09-04T07:02:57.898Z,101411.63
2022-09-04T07:05:32.562Z,101411.81
2022-09-04T07:08:10.797Z,101412.78
2022-09-04T07:10:44.444Z,101413.91
2022-09-04T07:13:36.516Z,101420.41
2022-09-04T07:16:10.877Z,101412.59
2022-09-04T07:18:59.024Z,101408.78
2022-09-04T07:21:35.553Z,101417.03
2022-09-04T07:24:07.332Z,101422.28
2022-09-04T07:26:40.700Z,101416.56
2022-09-04T07:29:32.891Z,101427.84
2022-09-04T07:32:06.174Z,101424.41
2022-09-04T07:34:43.013Z,101429.72
2022-09-04T07:37:27.867Z,101429.00
2022-09-04T07:40:08.308Z,101428.63
2022-09-04T07:42:44.302Z,101434.19
2022-09-04T07:45:22.604Z,101436.19
2022-09-04T07:47:58.697Z,101437.75
2022-09-04T07:50:35.285Z,101439.34
2022-09-04T07:53:27.458Z,101441.28
2022-09-04T07:56:01.646Z,101455.22
2022-09-04T07:58:54.982Z,101456.75
2022-09-04T08:01:44.864Z,101456.31
2022-09-04T08:04:44.399Z,101454.63
2022-09-04T08:07:21.440Z,101451.81
2022-09-04T08:10:07.921Z,101457.38
2022-09-04T08:13:14.151Z,101460.56
2022-09-04T08:15:46.133Z,101455.66
2022-09-04T08:18:42.427Z,101448.44
2022-09-04T08:21:20.647Z,101448.06
2022-09-04T08:24:18.669Z,101446.66
2022-09-04T08:26:57.298Z,101451.97
2022-09-04T08:29:50.302Z,101449.53
2022-09-04T08:32:47.795Z,101456.97
2022-09-04T08:35:24.491Z,101462.78
2022-09-04T08:38:16.205Z,101455.41
2022-09-04T08:41:06.915Z,101462.06
2022-09-04T08:44:06.481Z,101468.25
2022-09-04T08:47:02.175Z,101460.53
2022-09-04T08:50:12.388Z,101461.94
2022-09-04T08:53:31.090Z,101466.13
2022-09-04T08:56:24.345Z,101464.72
2022-09-04T08:59:31.536Z,101470.59
2022-09-04T09:02:46.329Z,101469.78
2022-09-04T09:05:57.845Z,101471.97
2022-09-04T09:09:07.225Z,101476.63
2022-09-04T09:12:10.313Z,101478.34
2022-09-04T09:15:11.137Z,101471.63
2022-09-04T09:17:50.280Z,101470.59
2022-09-04T09:20:28.886Z,101478.44
2022-09-04T09:23:20.194Z,101483.03
2022-09-04T09:25:54.151Z,101477.06
2022-09-04T09:29:03.642Z,101475.69
2022-09-04T09:32:07.231Z,101480.69
2022-09-04T09:35:11.504Z,101476.63
2022-09-04T09:38:26.768Z,101484.03
2022-09-04T09:41:20.155Z,101469.06
2022-09-04T09:44:41.683Z,101471.31
2022-09-04T09:47:45.115Z,101474.00
2022-09-04T09:50:50.069Z,101471.38
2022-09-04T09:53:50.721Z,101479.94
2022-09-04T09:56:53.883Z,101470.38
2022-09-04T10:00:07.039Z,101469.13
2022-09-04T10:03:04.108Z,101462.94
2022-09-04T10:06:02.272Z,101469.28
2022-09-04T10:09:09.638Z,101473.66
2022-09-04T10:12:28.075Z,101476.41
2022-09-04T10:15:43.500Z,101464.41
2022-09-04T10:18:37.858Z,101462.94
2022-09-04T10:21:20.627Z,101475.25
2022-09-04T10:24:10.354Z,101471.72
2022-09-04T10:27:27.501Z,101461.31
2022-09-04T10:30:05.096Z,101468.06
2022-09-04T10:32:59.279Z,101468.41
2022-09-04T10:35:39.400Z,101466.66
2022-09-04T10:39:03.467Z,101467.38
2022-09-04T10:41:50.775Z,101467.56
2022-09-04T10:44:53.057Z,101461.06
2022-09-04T10:47:36.472Z,101460.66
2022-09-04T10:50:28.628Z,101463.25
2022-09-04T10:53:20.890Z,101468.28
2022-09-04T10:56:16.251Z,101471.22
2022-09-04T10:59:21.217Z,101479.28
2022-09-04T11:02:25.739Z,101472.00
2022-09-04T11:05:19.447Z,101471.47
2022-09-04T11:08:19.048Z,101472.81
2022-09-04T11:11:08.412Z,101465.78
2022-09-04T11:14:06.434Z,101461.88
2022-09-04T11:17:09.750Z,101460.63
2022-09-04T11:20:18.135Z,101456.66
2022-09-04T11:23:13.190Z,101459.06
2022-09-04T11:26:31.543Z,101459.19
2022-09-04T11:29:25.247Z,101466.31
2022-09-04T11:32:12.239Z,101468.78
2022-09-04T11:35:10.336Z,101468.16
2022-09-04T11:38:13.942Z,101470.25
2022-09-04T11:41:29.159Z,101470.50
2022-09-04T11:44:22.260Z,101454.19
2022-09-04T11:47:23.362Z,101462.00
2022-09-04T11:50:06.695Z,101456.72
2022-09-04T11:52:53.770Z,101459.84
2022-09-04T11:55:52.129Z,101458.63
2022-09-04T11:58:52.602Z,101461.38
2022-09-04T12:01:39.206Z,101463.28
2022-09-04T12:04:40.685Z,101465.22
2022-09-04T12:07:22.331Z,101456.59
2022-09-04T12:10:16.631Z,101461.31
2022-09-04T12:13:18.172Z,101458.44
2022-09-04T12:16:15.462Z,101456.47
2022-09-04T12:19:06.083Z,101457.91
2022-09-04T12:22:02.816Z,101455.81
2022-09-04T12:24:49.696Z,101464.75
2022-09-04T12:27:46.261Z,101462.66
2022-09-04T12:30:20.419Z,101467.81
2022-09-04T12:33:19.883Z,101465.38
2022-09-04T12:36:27.674Z,101467.88
2022-09-04T12:39:24.721Z,101463.31
2022-09-04T12:42:00.651Z,101464.72
2022-09-04T12:44:41.347Z,101470.34
2022-09-04T12:47:21.870Z,101463.34
2022-09-04T12:50:16.810Z,101460.78
2022-09-04T12:53:01.023Z,101461.88
2022-09-04T12:55:39.484Z,101467.38
2022-09-04T12:58:22.350Z,101465.09
2022-09-04T13:00:58.924Z,101461.16
2022-09-04T13:03:40.170Z,101459.03
2022-09-04T13:06:24.504Z,101466.56
2022-09-04T13:09:05.463Z,101478.78
2022-09-04T13:11:48.754Z,101480.59
2022-09-04T13:14:38.988Z,101477.00
2022-09-04T13:17:13.089Z,101479.81
2022-09-04T13:19:49.942Z,101474.28
2022-09-04T13:22:30.168Z,101478.41
2022-09-04T13:25:06.646Z,101474.38
2022-09-04T13:27:58.907Z,101480.69
2022-09-04T13:30:30.536Z,101483.50
2022-09-04T13:33:18.600Z,101466.84
2022-09-04T13:36:00.089Z,101472.44
2022-09-04T13:38:52.209Z,101464.94
2022-09-04T13:41:51.421Z,101465.44
2022-09-04T13:44:47.430Z,101468.63
2022-09-04T13:47:22.888Z,101467.38
2022-09-04T13:50:08.562Z,101463.34
2022-09-04T13:52:43.274Z,101476.50
2022-09-04T13:55:16.646Z,101477.00
2022-09-04T13:57:48.738Z,101481.06
2022-09-04T14:00:17.538Z,101475.94
2022-09-04T14:02:48.718Z,101476.59
2022-09-04T14:05:20.502Z,101486.41
2022-09-04T14:07:52.459Z,101474.78
2022-09-04T14:10:25.765Z,101474.13
2022-09-04T14:13:11.295Z,101470.94
2022-09-04T14:16:03.876Z,101480.91
2022-09-04T14:18:57.411Z,101473.97
2022-09-04T14:21:42.675Z,101475.13
2022-09-04T14:24:21.478Z,101472.88
2022-09-04T14:27:00.570Z,101475.69
2022-09-04T14:29:36.253Z,101477.06
2022-09-04T14:32:16.407Z,101471.78
2022-09-04T14:35:02.369Z,101471.78
2022-09-04T14:37:48.299Z,101466.94
2022-09-04T14:40:21.240Z,101469.31
2022-09-04T14:42:58.345Z,101462.81
2022-09-04T14:45:51.028Z,101468.88
2022-09-04T14:48:24.319Z,101471.25
2022-09-04T14:50:59.998Z,101469.13
2022-09-04T14:53:30.948Z,101469.88
2022-09-04T14:56:21.896Z,101473.41
2022-09-04T14:58:56.542Z,101469.19
2022-09-04T15:01:26.263Z,101466.53
2022-09-04T15:03:59.482Z,101467.69
2022-09-04T15:06:44.538Z,101466.38
2022-09-04T15:09:28.340Z,101463.69
2022-09-04T15:12:21.154Z,101462.44
2022-09-04T15:14:52.020Z,101464.09
2022-09-04T15:17:28.607Z,101467.25
2022-09-04T15:20:03.198Z,101468.75
2022-09-04T15:22:37.954Z,101462.25
2022-09-04T15:25:09.133Z,101452.22
2022-09-04T15:27:47.296Z,101458.31
2022-09-04T15:30:21.869Z,101458.66
2022-09-04T15:33:04.640Z,101450.22
2022-09-04T15:35:34.133Z,101452.25
2022-09-04T15:38:21.130Z,101453.25
2022-09-04T15:41:16.180Z,101450.34
2022-09-04T15:43:51.468Z,101454.94
2022-09-04T15:46:27.438Z,101459.97
2022-09-04T15:49:13.727Z,101455.34
2022-09-04T15:51:48.575Z,101461.06
2022-09-04T15:54:35.868Z,101460.00
2022-09-04T15:57:10.445Z,101451.91
2022-09-04T15:59:48.952Z,101459.38
2022-09-04T16:02:36.403Z,101461.53
2022-09-04T16:05:15.161Z,101462.19
2022-09-04T16:07:54.506Z,101459.19
2022-09-04T16:10:29.779Z,101456.28
2022-09-04T16:13:02.460Z,101454.59
2022-09-04T16:15:34.403Z,101451.56
2022-09-04T16:18:11.827Z,101462.91
2022-09-04T16:20:50.889Z,101452.53
2022-09-04T16:23:20.188Z,101463.22
2022-09-04T16:25:52.845Z,101462.00
2022-09-04T16:28:31.787Z,101466.94
2022-09-04T16:31:02.496Z,101463.75
2022-09-04T16:33:34.725Z,101466.25
2022-09-04T16:36:06.782Z,101463.97
2022-09-04T16:38:47.535Z,101465.72
2022-09-04T16:41:25.603Z,101457.84
2022-09-04T16:44:23.863Z,101458.91
2022-09-04T16:47:04.554Z,101463.84
2022-09-04T16:49:39.023Z,101461.69
2022-09-04T16:52:32.253Z,101463.84
2022-09-04T16:55:08.620Z,101470.34
2022-09-04T16:57:43.485Z,101465.38
2022-09-04T17:00:15.377Z,101459.81
2022-09-04T17:02:49.076Z,101461.41
2022-09-04T17:05:28.465Z,101457.81
2022-09-04T17:08:02.721Z,101460.72
2022-09-04T17:10:41.526Z,101459.31
2022-09-04T17:13:19.677Z,101454.69
2022-09-04T17:15:54.983Z,101467.91
2022-09-04T17:18:25.588Z,101459.28
2022-09-04T17:25:14.609Z,101463.31
2022-09-04T17:28:58.466Z,101473.13
2022-09-04T17:29:10.937Z,101466.09
2022-09-04T17:29:48.159Z,101460.66
2022-09-04T17:34:11.867Z,101461.50
2022-09-04T17:40:43.662Z,101469.72
2022-09-04T17:40:56.468Z,101466.56
2022-09-04T17:41:35.710Z,101470.22
2022-09-04T17:44:22.318Z,101461.63
2022-09-04T17:47:03.821Z,101460.97
2022-09-04T17:49:36.084Z,101469.09
2022-09-04T17:52:07.218Z,101468.41
2022-09-04T17:54:42.230Z,101465.06
2022-09-04T17:57:26.080Z,101475.59
2022-09-04T18:00:02.511Z,101472.13
2022-09-04T18:02:40.979Z,101474.28
2022-09-04T18:05:19.294Z,101476.50
2022-09-04T18:08:09.139Z,101480.22
2022-09-04T18:10:49.980Z,101478.78
2022-09-04T18:13:36.601Z,101475.69
2022-09-04T18:16:19.458Z,101488.63
2022-09-04T18:18:52.899Z,101487.91
2022-09-04T18:21:26.209Z,101489.63
2022-09-04T18:24:01.677Z,101491.31
2022-09-04T18:26:40.403Z,101501.00
2022-09-04T18:32:31.762Z,101508.38
2022-09-04T18:37:17.798Z,101507.63
2022-09-04T18:37:22.080Z,101514.53
2022-09-04T18:38:36.567Z,101517.47
2022-09-04T18:47:50.550Z,101521.50
2022-09-04T18:50:24.568Z,101517.66
2022-09-04T18:50:34.160Z,101525.03
2022-09-04T18:50:40.368Z,101520.72
2022-09-04T18:53:01.866Z,101531.63
2022-09-04T18:55:34.746Z,101531.75
2022-09-04T18:58:29.393Z,101538.69
2022-09-04T19:01:01.903Z,101543.13
2022-09-04T19:03:37.703Z,101544.00
2022-09-04T19:06:12.615Z,101548.88
2022-09-04T19:08:48.364Z,101548.56
2022-09-04T19:11:24.111Z,101548.22
2022-09-04T19:13:57.231Z,101562.63
2022-09-04T19:16:38.671Z,101561.09
2022-09-04T19:19:17.089Z,101549.19
2022-09-04T19:21:58.142Z,101560.38
2022-09-04T19:24:36.546Z,101552.06
2022-09-04T19:27:26.532Z,101548.50
2022-09-04T19:30:17.583Z,101556.06
2022-09-04T19:33:00.364Z,101560.47
2022-09-04T19:35:36.799Z,101562.47
2022-09-04T19:44:13.603Z,101562.13
2022-09-04T19:45:56.309Z,101556.59
2022-09-04T19:46:13.770Z,101565.78
2022-09-04T19:47:01.679Z,101553.47
2022-09-04T19:51:37.039Z,101563.06
2022-09-04T19:53:34.523Z,101561.47
2022-09-04T19:55:40.342Z,101564.28
2022-09-04T19:58:11.875Z,101570.28
2022-09-04T20:00:47.502Z,101572.66
2022-09-04T20:03:29.852Z,101566.72
2022-09-04T20:06:20.194Z,101573.50
2022-09-04T20:08:55.557Z,101569.56
2022-09-04T20:11:35.601Z,101583.06
2022-09-04T20:14:14.259Z,101583.88
2022-09-04T20:16:52.001Z,101583.88
2022-09-04T20:19:27.793Z,101583.84
2022-09-04T20:22:00.584Z,101583.84
2022-09-04T20:24:37.540Z,101581.06
2022-09-04T20:27:15.594Z,101588.59
2022-09-04T20:29:50.453Z,101587.78
2022-09-04T20:32:27.564Z,101589.78
2022-09-04T20:35:14.038Z,101593.31
2022-09-04T20:37:48.727Z,101588.56
2022-09-04T20:40:27.461Z,101590.16
2022-09-04T20:43:11.837Z,101588.53
2022-09-04T20:49:30.472Z,101592.13
2022-09-04T20:52:58.050Z,101590.94
2022-09-04T20:52:59.850Z,101594.06
2022-09-04T20:54:39.222Z,101589.34
2022-09-04T20:59:15.206Z,101592.44
2022-09-04T21:03:17.937Z,101596.41
2022-09-04T21:03:27.862Z,101590.78
2022-09-04T21:06:07.604Z,101588.38
2022-09-04T21:08:44.697Z,101595.09
2022-09-04T21:11:39.604Z,101604.97
2022-09-04T21:14:10.824Z,101603.34
2022-09-04T21:16:52.261Z,101594.59
2022-09-04T21:20:03.123Z,101598.88
2022-09-04T21:22:56.841Z,101600.78
2022-09-04T21:25:44.460Z,101602.34
2022-09-04T21:28:37.740Z,101599.91
2022-09-04T21:31:21.097Z,101599.91
2022-09-04T21:34:05.264Z,101604.19
2022-09-04T21:36:41.076Z,101602.19
2022-09-04T21:39:39.062Z,101598.97
2022-09-04T21:42:31.300Z,101597.78
2022-09-04T21:45:37.241Z,101601.31
2022-09-04T21:48:33.030Z,101605.28
2022-09-04T21:51:28.337Z,101606.44
2022-09-04T21:54:37.365Z,101613.16
2022-09-04T22:02:40.287Z,101616.25
2022-09-04T22:02:43.613Z,101610.72
2022-09-04T22:03:32.669Z,101613.09
2022-09-04T22:06:09.319Z,101613.03
2022-09-04T22:13:29.292Z,101615.41
2022-09-04T22:13:38.742Z,101615.34
2022-09-04T22:14:42.794Z,101619.22
2022-09-04T22:17:34.452Z,101614.00
2022-09-04T22:20:21.825Z,101604.81
2022-09-04T22:23:28.073Z,101612.69
2022-09-04T22:26:23.818Z,101610.28
2022-09-04T22:29:09.247Z,101606.25
2022-09-04T22:32:20.521Z,101606.91
2022-09-04T22:35:19.956Z,101605.66
2022-09-04T22:38:21.277Z,101609.16
2022-09-04T22:41:01.901Z,101607.94
2022-09-04T22:43:46.672Z,101605.94
2022-09-04T22:46:41.271Z,101617.31
2022-09-04T22:49:26.168Z,101624.34
2022-09-04T22:52:34.140Z,101625.00
2022-09-04T22:55:38.540Z,101625.00
2022-09-04T22:58:19.924Z,101620.22
2022-09-04T23:01:05.409Z,101614.31
2022-09-04T23:03:47.250Z,101612.69
2022-09-04T23:11:26.993Z,101616.22
2022-09-04T23:13:48.667Z,101612.28
2022-09-04T23:13:49.425Z,101611.09
2022-09-04T23:16:12.708Z,101611.09
2022-09-04T23:21:07.153Z,101609.91
2022-09-04T23:26:43.385Z,101611.00
2022-09-04T23:26:52.674Z,101608.69
2022-09-04T23:28:27.283Z,101611.00
2022-09-04T23:31:08.734Z,101614.88
2022-09-04T23:33:57.902Z,101618.34
2022-09-04T23:36:48.818Z,101617.50
2022-09-04T23:39:46.381Z,101617.41
2022-09-04T23:42:46.386Z,101625.16
2022-09-04T23:45:48.605Z,101620.75
2022-09-04T23:48:45.899Z,101615.94
2022-09-04T23:51:25.562Z,101613.56
2022-09-04T23:54:21.812Z,101611.56
2022-09-04T23:56:58.896Z,101617.00
2022-09-04T23:59:36.078Z,101608.69
